Time;durP1;ratioP1;P1;durP2;ratioP2;P2;SDS_P1;SDS_P2;PMS_P1;PMS_P2;Temp;Humidity;BMP_temperature;BMP_pressure;BME280_temperature;BME280_humidity;BME280_pressure;Samples;Min_cycle;Max_cycle;Signal;HPM_P1;HPM_P2
2022/08/29 00:00:48;;;;;;;;;;;;;;;;;;4772713;29;19926;-46
2022/08/29 00:03:16;;;;;;;;;;;;;;;;;;4772909;29;19930;-48
2022/08/29 00:05:44;;;;;;;;;;;;;;;;;;4772333;30;20073;-49
2022/08/29 00:08:12;;;;;;;;;;;;;;;;;;4772632;30;20383;-45
2022/08/29 00:10:40;;;;;;;;;;;;;;;;;;4772483;30;19926;-44
2022/08/29 00:13:08;;;;;;;;;;;;;;;;;;4772760;29;20336;-47
2022/08/29 00:15:36;;;;;;;;;;;;;;;;;;4772819;30;19930;-43
2022/08/29 00:18:10;;;;;;;;;;;;;;;;;;4772632;30;20008;-43
2022/08/29 00:20:37;;;;;;;;;;;;;;;;;;4786195;29;19925;-44
2022/08/29 00:23:06;;;;;;;;;;;;;;;;;;4804206;29;19972;-43
2022/08/29 00:25:33;;;;;;;;;;;;;;;;;;4790202;29;19952;-44
2022/08/29 00:28:01;;;;;;;;;;;;;;;;;;4790412;29;19932;-45
2022/08/29 00:30:28;;;;;;;;;;;;;;;;;;4790303;29;19925;-48
2022/08/29 00:32:56;;;;;;;;;;;;;;;;;;4790205;30;20080;-44
2022/08/29 00:35:25;;;;;;;;;;;;;;;;;;4790105;29;19926;-52
2022/08/29 00:37:53;;;;;;;;;;;;;;;;;;4790096;29;20332;-47
2022/08/29 00:40:26;;;;;;;;;;;;;;;;;;4790067;29;19925;-49
2022/08/29 00:42:53;;;;;;;;;;;;;;;;;;4790302;29;19932;-43
2022/08/29 00:45:21;;;;;;;;;;;;;;;;;;4803721;29;20357;-44
2022/08/29 00:47:51;;;;;;;;;;;;;;;;;;4790041;29;19929;-44
2022/08/29 00:50:23;;;;;;;;;;;;;;;;;;4789759;30;20382;-45
2022/08/29 00:52:50;;;;;;;;;;;;;;;;;;4789857;30;20297;-42
2022/08/29 00:55:21;;;;;;;;;;;;;;;;;;4789877;29;19981;-47
2022/08/29 00:57:52;;;;;;;;;;;;;;;;;;4789882;29;19925;-48
2022/08/29 01:00:19;;;;;;;;;;;;;;;;;;4789842;30;19925;-43
2022/08/29 01:02:47;;;;;;;;;;;;;;;;;;4789675;29;19967;-43
2022/08/29 01:05:15;;;;;;;;;;;;;;;;;;4789554;29;20304;-45
2022/08/29 01:07:42;;;;;;;;;;;;;;;;;;4803387;29;20020;-45
2022/08/29 01:12:14;;;;;;;;;;;;;;;;;;4789644;29;19929;-42
2022/08/29 01:12:57;;;;;;;;;;;;;;;;;;4789457;29;19996;-46
2022/08/29 01:15:25;;;;;;;;;;;;;;;;;;4789602;30;19936;-51
2022/08/29 01:17:53;;;;;;;;;;;;;;;;;;4789936;29;19925;-44
2022/08/29 01:20:23;;;;;;;;;;;;;;;;;;4789397;29;20012;-45
2022/08/29 01:23:08;;;;;;;;;;;;;;;;;;4789359;29;19926;-43
2022/08/29 01:25:39;;;;;;;;;;;;;;;;;;4789290;30;19976;-43
2022/08/29 01:28:10;;;;;;;;;;;;;;;;;;4789405;30;19926;-43
2022/08/29 01:30:55;;;;;;;;;;;;;;;;;;4802982;29;20370;-45
2022/08/29 01:33:23;;;;;;;;;;;;;;;;;;4789113;29;19925;-43
2022/08/29 01:35:50;;;;;;;;;;;;;;;;;;4803144;29;19965;-43
2022/08/29 01:38:26;;;;;;;;;;;;;;;;;;4789075;30;20394;-45
2022/08/29 01:40:57;;;;;;;;;;;;;;;;;;4788927;30;19932;-49
2022/08/29 01:43:25;;;;;;;;;;;;;;;;;;4789031;29;20719;-43
2022/08/29 01:45:52;;;;;;;;;;;;;;;;;;4788828;29;20390;-46
2022/08/29 01:48:20;;;;;;;;;;;;;;;;;;4788980;29;19982;-44
2022/08/29 01:50:48;;;;;;;;;;;;;;;;;;4788851;29;19933;-45
2022/08/29 01:53:15;;;;;;;;;;;;;;;;;;4789019;30;20382;-43
2022/08/29 01:55:42;;;;;;;;;;;;;;;;;;4789125;29;19932;-44
2022/08/29 01:58:09;;;;;;;;;;;;;;;;;;4789047;29;19948;-44
2022/08/29 02:00:37;;;;;;;;;;;;;;;;;;4788930;29;19926;-43
2022/08/29 02:03:04;;;;;;;;;;;;;;;;;;4788710;29;19948;-44
2022/08/29 02:05:31;;;;;;;;;;;;;;;;;;4770545;30;19929;-44
2022/08/29 02:07:59;;;;;;;;;;;;;;;;;;4770770;30;19925;-46
2022/08/29 02:10:26;;;;;;;;;;;;;;;;;;4770804;30;20446;-44
2022/08/29 02:12:53;;;;;;;;;;;;;;;;;;4770504;30;19926;-44
2022/08/29 02:15:20;;;;;;;;;;;;;;;;;;4770876;30;19926;-43
2022/08/29 02:17:48;;;;;;;;;;;;;;;;;;4770187;30;19971;-43
2022/08/29 02:20:15;;;;;;;;;;;;;;;;;;4773974;30;20082;-43
2022/08/29 02:22:42;;;;;;;;;;;;;;;;;;4770445;30;20417;-45
2022/08/29 02:25:56;;;;;;;;;;;;;;;;;;4770064;29;20009;-44
2022/08/29 02:27:58;;;;;;;;;;;;;;;;;;4767108;30;19983;-43
2022/08/29 02:30:25;;;;;;;;;;;;;;;;;;4770200;30;20005;-43
2022/08/29 02:32:53;;;;;;;;;;;;;;;;;;4770400;29;19929;-44
2022/08/29 02:35:21;;;;;;;;;;;;;;;;;;4783909;30;19971;-45
2022/08/29 02:37:48;;;;;;;;;;;;;;;;;;4770299;29;19926;-45
2022/08/29 02:40:15;;;;;;;;;;;;;;;;;;4770355;30;19936;-44
2022/08/29 02:42:43;;;;;;;;;;;;;;;;;;4769899;30;19925;-44
2022/08/29 02:45:12;;;;;;;;;;;;;;;;;;4783734;29;19987;-44
2022/08/29 02:47:40;;;;;;;;;;;;;;;;;;4770044;30;19959;-44
2022/08/29 02:50:08;;;;;;;;;;;;;;;;;;4770133;30;20321;-42
2022/08/29 02:52:37;;;;;;;;;;;;;;;;;;4770303;29;19976;-45
2022/08/29 02:55:04;;;;;;;;;;;;;;;;;;4770184;30;19953;-43
2022/08/29 02:57:32;;;;;;;;;;;;;;;;;;4769950;30;19932;-43
2022/08/29 02:59:59;;;;;;;;;;;;;;;;;;4770026;30;19983;-43
2022/08/29 03:02:26;;;;;;;;;;;;;;;;;;4769592;30;19925;-44
2022/08/29 03:04:53;;;;;;;;;;;;;;;;;;4769993;30;19942;-50
2022/08/29 03:07:21;;;;;;;;;;;;;;;;;;4769209;30;19959;-45
2022/08/29 03:09:48;;;;;;;;;;;;;;;;;;4769909;30;19925;-46
2022/08/29 03:12:15;;;;;;;;;;;;;;;;;;4769677;30;19933;-45
2022/08/29 03:14:42;;;;;;;;;;;;;;;;;;4769613;30;19926;-46
2022/08/29 03:17:09;;;;;;;;;;;;;;;;;;4770002;30;19933;-51
2022/08/29 03:19:36;;;;;;;;;;;;;;;;;;4775654;29;19948;-45
2022/08/29 03:22:04;;;;;;;;;;;;;;;;;;4787886;30;20394;-47
2022/08/29 03:24:33;;;;;;;;;;;;;;;;;;4787063;29;19925;-46
2022/08/29 03:27:00;;;;;;;;;;;;;;;;;;4772167;29;19926;-43
2022/08/29 03:29:28;;;;;;;;;;;;;;;;;;4768821;30;19934;-44
2022/08/29 03:31:58;;;;;;;;;;;;;;;;;;4769497;29;19991;-43
2022/08/29 03:34:26;;;;;;;;;;;;;;;;;;4769375;29;19929;-45
2022/08/29 03:36:54;;;;;;;;;;;;;;;;;;4769362;30;19983;-44
2022/08/29 03:39:21;;;;;;;;;;;;;;;;;;4769236;29;19965;-43
2022/08/29 03:41:48;;;;;;;;;;;;;;;;;;4769324;30;19926;-42
2022/08/29 03:44:15;;;;;;;;;;;;;;;;;;4769385;30;19933;-43
2022/08/29 03:46:42;;;;;;;;;;;;;;;;;;4769307;29;19933;-45
2022/08/29 03:49:10;;;;;;;;;;;;;;;;;;4769255;29;19925;-43
2022/08/29 03:51:38;;;;;;;;;;;;;;;;;;4783041;30;19937;-43
2022/08/29 03:54:06;;;;;;;;;;;;;;;;;;4769450;29;19930;-43
2022/08/29 03:56:33;;;;;;;;;;;;;;;;;;4769201;30;19936;-43
2022/08/29 03:59:00;;;;;;;;;;;;;;;;;;4769127;30;20456;-42
2022/08/29 04:01:28;;;;;;;;;;;;;;;;;;4768847;29;20375;-45
2022/08/29 04:03:56;;;;;;;;;;;;;;;;;;4769055;29;20008;-42
2022/08/29 04:06:24;;;;;;;;;;;;;;;;;;4769058;30;19926;-44
2022/08/29 04:08:52;;;;;;;;;;;;;;;;;;4768880;29;19973;-43
2022/08/29 04:11:20;;;;;;;;;;;;;;;;;;4769144;30;19926;-43
2022/08/29 04:13:47;;;;;;;;;;;;;;;;;;4768939;29;19968;-44
2022/08/29 04:16:16;;;;;;;;;;;;;;;;;;4769007;30;19930;-48
2022/08/29 04:18:44;;;;;;;;;;;;;;;;;;4782536;29;19925;-43
2022/08/29 04:21:11;;;;;;;;;;;;;;;;;;4786690;29;19983;-44
2022/08/29 04:23:39;;;;;;;;;;;;;;;;;;4786875;29;19925;-43
2022/08/29 04:26:16;;;;;;;;;;;;;;;;;;4787199;29;19925;-43
2022/08/29 04:29:02;;;;;;;;;;;;;;;;;;4786367;30;19948;-46
2022/08/29 04:31:29;;;;;;;;;;;;;;;;;;4786830;29;19929;-41
2022/08/29 04:33:56;;;;;;;;;;;;;;;;;;4787025;29;20016;-43
2022/08/29 04:36:24;;;;;;;;;;;;;;;;;;4786592;29;20267;-44
2022/08/29 04:38:51;;;;;;;;;;;;;;;;;;4786905;29;19925;-42
2022/08/29 04:41:18;;;;;;;;;;;;;;;;;;4788387;29;19936;-45
2022/08/29 04:43:46;;;;;;;;;;;;;;;;;;4789988;29;20036;-42
2022/08/29 04:46:14;;;;;;;;;;;;;;;;;;4790163;29;19925;-45
2022/08/29 04:48:49;;;;;;;;;;;;;;;;;;4789883;29;20012;-43
2022/08/29 04:51:16;;;;;;;;;;;;;;;;;;4789666;29;20339;-43
2022/08/29 04:53:43;;;;;;;;;;;;;;;;;;4789499;29;19936;-43
2022/08/29 04:56:11;;;;;;;;;;;;;;;;;;4789654;29;20305;-43
2022/08/29 04:58:40;;;;;;;;;;;;;;;;;;4789652;29;19925;-45
2022/08/29 05:01:07;;;;;;;;;;;;;;;;;;4790041;29;20308;-44
2022/08/29 05:03:34;;;;;;;;;;;;;;;;;;4789283;29;19933;-44
2022/08/29 05:06:05;;;;;;;;;;;;;;;;;;4789326;29;19982;-46
2022/08/29 05:08:35;;;;;;;;;;;;;;;;;;4789183;30;19925;-43
2022/08/29 05:11:05;;;;;;;;;;;;;;;;;;4789441;29;19929;-43
2022/08/29 05:13:32;;;;;;;;;;;;;;;;;;4789631;29;20341;-43
2022/08/29 05:16:03;;;;;;;;;;;;;;;;;;4789527;29;19990;-43
2022/08/29 05:18:31;;;;;;;;;;;;;;;;;;4789547;29;19932;-44
2022/08/29 05:20:58;;;;;;;;;;;;;;;;;;4789201;30;19946;-43
2022/08/29 05:23:25;;;;;;;;;;;;;;;;;;4788988;29;19976;-43
2022/08/29 05:25:57;;;;;;;;;;;;;;;;;;4789285;29;20015;-43
2022/08/29 05:28:25;;;;;;;;;;;;;;;;;;4789209;29;19925;-43
2022/08/29 05:30:52;;;;;;;;;;;;;;;;;;4789187;29;20342;-43
2022/08/29 05:33:20;;;;;;;;;;;;;;;;;;4789161;29;19972;-43
2022/08/29 05:35:47;;;;;;;;;;;;;;;;;;4789016;30;19926;-43
2022/08/29 05:38:14;;;;;;;;;;;;;;;;;;4788999;29;19929;-43
2022/08/29 05:40:42;;;;;;;;;;;;;;;;;;4789026;30;19965;-43
2022/08/29 05:43:10;;;;;;;;;;;;;;;;;;4789139;30;19925;-43
2022/08/29 05:45:37;;;;;;;;;;;;;;;;;;4789204;29;19978;-43
2022/08/29 05:48:06;;;;;;;;;;;;;;;;;;4789395;30;19926;-44
2022/08/29 05:50:40;;;;;;;;;;;;;;;;;;4802629;29;20370;-45
2022/08/29 05:53:15;;;;;;;;;;;;;;;;;;4788121;29;19934;-45
2022/08/29 05:55:44;;;;;;;;;;;;;;;;;;4788668;29;19930;-43
2022/08/29 05:58:12;;;;;;;;;;;;;;;;;;4788740;29;19929;-44
2022/08/29 06:00:41;;;;;;;;;;;;;;;;;;4788701;29;19942;-44
2022/08/29 06:03:09;;;;;;;;;;;;;;;;;;4788876;29;19930;-43
2022/08/29 06:05:37;;;;;;;;;;;;;;;;;;4788644;29;19967;-43
2022/08/29 06:08:04;;;;;;;;;;;;;;;;;;4788844;29;19932;-43
2022/08/29 06:10:32;;;;;;;;;;;;;;;;;;4788489;29;20422;-45
2022/08/29 06:13:02;;;;;;;;;;;;;;;;;;4788549;29;19929;-43
2022/08/29 06:15:29;;;;;;;;;;;;;;;;;;4788393;29;19930;-45
2022/08/29 06:17:56;;;;;;;;;;;;;;;;;;4788487;29;19979;-43
2022/08/29 06:20:24;;;;;;;;;;;;;;;;;;4788406;29;20024;-44
2022/08/29 06:22:51;;;;;;;;;;;;;;;;;;4788515;30;19969;-47
2022/08/29 06:25:18;;;;;;;;;;;;;;;;;;4788105;29;19926;-43
2022/08/29 06:28:04;;;;;;;;;;;;;;;;;;4788491;30;19925;-43
2022/08/29 06:30:32;;;;;;;;;;;;;;;;;;4788423;30;19982;-46
2022/08/29 06:32:59;;;;;;;;;;;;;;;;;;4787941;29;19929;-43
2022/08/29 06:35:27;;;;;;;;;;;;;;;;;;4788212;29;19967;-47
2022/08/29 06:37:54;;;;;;;;;;;;;;;;;;4788321;29;19925;-45
2022/08/29 06:40:21;;;;;;;;;;;;;;;;;;4787939;29;19974;-43
2022/08/29 06:42:49;;;;;;;;;;;;;;;;;;4788048;30;20012;-43
2022/08/29 06:45:16;;;;;;;;;;;;;;;;;;4787960;29;19968;-46
2022/08/29 06:47:45;;;;;;;;;;;;;;;;;;4788198;29;19926;-44
2022/08/29 06:50:12;;;;;;;;;;;;;;;;;;4788852;29;19994;-44
2022/08/29 06:52:39;;;;;;;;;;;;;;;;;;4787818;29;20011;-44
2022/08/29 06:55:10;;;;;;;;;;;;;;;;;;4787842;29;19996;-44
2022/08/29 06:57:43;;;;;;;;;;;;;;;;;;4788067;30;20028;-45
2022/08/29 07:00:12;;;;;;;;;;;;;;;;;;4778126;30;20016;-44
2022/08/29 07:02:47;;;;;;;;;;;;;;;;;;4769893;30;19926;-52
2022/08/29 07:05:17;;;;;;;;;;;;;;;;;;4769413;29;19959;-43
2022/08/29 07:07:44;;;;;;;;;;;;;;;;;;4769824;30;20267;-44
2022/08/29 07:10:13;;;;;;;;;;;;;;;;;;4769726;30;20407;-45
2022/08/29 07:12:44;;;;;;;;;;;;;;;;;;4769646;29;19925;-43
2022/08/29 07:15:11;;;;;;;;;;;;;;;;;;4769705;29;19930;-44
2022/08/29 07:17:39;;;;;;;;;;;;;;;;;;4769749;30;20463;-43
2022/08/29 07:20:07;;;;;;;;;;;;;;;;;;4779552;30;19969;-45
2022/08/29 07:22:34;;;;;;;;;;;;;;;;;;4787447;29;19926;-46
2022/08/29 07:25:01;;;;;;;;;;;;;;;;;;4787264;29;19929;-44
2022/08/29 07:27:29;;;;;;;;;;;;;;;;;;4787199;29;20502;-47
2022/08/29 07:29:56;;;;;;;;;;;;;;;;;;4787479;29;19957;-44
2022/08/29 07:32:23;;;;;;;;;;;;;;;;;;4787408;30;19926;-53
2022/08/29 07:34:51;;;;;;;;;;;;;;;;;;4787240;29;19929;-44
2022/08/29 07:37:22;;;;;;;;;;;;;;;;;;4787367;29;20346;-46
2022/08/29 07:39:49;;;;;;;;;;;;;;;;;;4787380;29;20004;-45
2022/08/29 07:42:16;;;;;;;;;;;;;;;;;;4787342;29;19932;-47
2022/08/29 07:44:43;;;;;;;;;;;;;;;;;;4787241;29;19968;-43
2022/08/29 07:47:10;;;;;;;;;;;;;;;;;;4787011;29;19932;-44
2022/08/29 07:49:37;;;;;;;;;;;;;;;;;;4787258;29;19925;-45
2022/08/29 07:52:08;;;;;;;;;;;;;;;;;;4787527;29;20356;-52
2022/08/29 07:54:35;;;;;;;;;;;;;;;;;;4787294;29;20275;-49
2022/08/29 07:57:02;;;;;;;;;;;;;;;;;;4787165;29;19972;-46
2022/08/29 07:59:30;;;;;;;;;;;;;;;;;;4786833;30;19987;-51
2022/08/29 08:01:57;;;;;;;;;;;;;;;;;;4786853;29;19925;-48
2022/08/29 08:04:25;;;;;;;;;;;;;;;;;;4787130;29;20449;-47
2022/08/29 08:06:52;;;;;;;;;;;;;;;;;;4786638;29;20015;-47
2022/08/29 08:09:19;;;;;;;;;;;;;;;;;;4786969;29;19932;-44
2022/08/29 08:11:47;;;;;;;;;;;;;;;;;;4787030;29;19962;-46
2022/08/29 08:14:14;;;;;;;;;;;;;;;;;;4786843;29;20039;-45
2022/08/29 08:16:41;;;;;;;;;;;;;;;;;;4789461;29;19932;-44
2022/08/29 08:19:10;;;;;;;;;;;;;;;;;;4790413;30;19925;-43
2022/08/29 08:21:38;;;;;;;;;;;;;;;;;;4790489;29;19964;-43
2022/08/29 08:24:10;;;;;;;;;;;;;;;;;;4790393;29;19969;-44
2022/08/29 08:26:40;;;;;;;;;;;;;;;;;;4790161;30;19932;-43
2022/08/29 08:29:11;;;;;;;;;;;;;;;;;;4790527;29;19982;-44
2022/08/29 08:31:46;;;;;;;;;;;;;;;;;;4790438;29;19929;-48
2022/08/29 08:34:14;;;;;;;;;;;;;;;;;;4790281;30;19931;-44
2022/08/29 08:36:43;;;;;;;;;;;;;;;;;;4790078;29;19926;-43
2022/08/29 08:39:11;;;;;;;;;;;;;;;;;;4789972;29;19960;-43
2022/08/29 08:41:48;;;;;;;;;;;;;;;;;;4786347;29;20646;-48
2022/08/29 08:44:25;;;;;;;;;;;;;;;;;;4771996;30;19965;-53
2022/08/29 08:46:54;;;;;;;;;;;;;;;;;;4772246;30;20399;-43
2022/08/29 08:49:27;;;;;;;;;;;;;;;;;;4772043;30;19941;-44
2022/08/29 08:52:00;;;;;;;;;;;;;;;;;;4771878;30;19991;-45
2022/08/29 08:54:32;;;;;;;;;;;;;;;;;;4771788;30;19973;-44
2022/08/29 08:57:06;;;;;;;;;;;;;;;;;;4771903;30;19929;-44
2022/08/29 08:59:38;;;;;;;;;;;;;;;;;;4771767;30;20044;-44
2022/08/29 09:02:15;;;;;;;;;;;;;;;;;;4771858;30;19926;-45
2022/08/29 09:04:52;;;;;;;;;;;;;;;;;;4772005;30;20410;-47
2022/08/29 09:07:35;;;;;;;;;;;;;;;;;;4771464;30;20018;-43
2022/08/29 09:10:09;;;;;;;;;;;;;;;;;;4771719;30;19933;-44
2022/08/29 09:12:44;;;;;;;;;;;;;;;;;;4771852;30;19929;-44
2022/08/29 09:15:16;;;;;;;;;;;;;;;;;;4771636;30;20360;-43
2022/08/29 09:17:51;;;;;;;;;;;;;;;;;;4771766;29;19983;-44
2022/08/29 09:20:21;;;;;;;;;;;;;;;;;;4782722;30;19926;-43
2022/08/29 09:23:09;;;;;;;;;;;;;;;;;;4789285;29;20455;-44
2022/08/29 09:25:37;;;;;;;;;;;;;;;;;;4785814;29;19929;-43
2022/08/29 09:28:05;;;;;;;;;;;;;;;;;;4789275;29;19925;-43
2022/08/29 09:30:34;;;;;;;;;;;;;;;;;;4789364;29;19925;-42
2022/08/29 09:33:03;;;;;;;;;;;;;;;;;;4789230;29;19926;-43
2022/08/29 09:35:39;;;;;;;;;;;;;;;;;;4789072;29;19975;-43
2022/08/29 09:38:16;;;;;;;;;;;;;;;;;;4789335;30;19984;-44
2022/08/29 09:40:49;;;;;;;;;;;;;;;;;;4788942;29;19925;-44
2022/08/29 09:43:19;;;;;;;;;;;;;;;;;;4789223;29;20382;-44
2022/08/29 09:46:04;;;;;;;;;;;;;;;;;;4789077;29;19955;-43
2022/08/29 09:48:33;;;;;;;;;;;;;;;;;;4788719;30;20000;-44
2022/08/29 09:51:08;;;;;;;;;;;;;;;;;;4788905;29;19930;-46
2022/08/29 09:53:36;;;;;;;;;;;;;;;;;;4788784;29;20348;-43
2022/08/29 09:56:04;;;;;;;;;;;;;;;;;;4788882;29;19925;-44
2022/08/29 09:58:36;;;;;;;;;;;;;;;;;;4788665;29;19936;-45
2022/08/29 10:01:10;;;;;;;;;;;;;;;;;;4789071;30;19925;-43
2022/08/29 10:03:40;;;;;;;;;;;;;;;;;;4788630;29;19983;-45
2022/08/29 10:06:12;;;;;;;;;;;;;;;;;;4789059;30;19948;-42
2022/08/29 10:08:41;;;;;;;;;;;;;;;;;;4788609;29;19978;-43
2022/08/29 10:11:20;;;;;;;;;;;;;;;;;;4788920;29;19936;-43
2022/08/29 10:13:50;;;;;;;;;;;;;;;;;;4788302;29;19929;-43
2022/08/29 10:16:17;;;;;;;;;;;;;;;;;;4788560;29;19934;-46
2022/08/29 10:18:45;;;;;;;;;;;;;;;;;;4788393;30;19948;-43
2022/08/29 10:21:23;;;;;;;;;;;;;;;;;;4788334;30;19925;-50
2022/08/29 10:24:09;;;;;;;;;;;;;;;;;;4788339;30;19925;-44
2022/08/29 10:26:48;;;;;;;;;;;;;;;;;;4788528;30;19929;-43
2022/08/29 10:29:35;;;;;;;;;;;;;;;;;;4788363;29;19925;-42
2022/08/29 10:32:13;;;;;;;;;;;;;;;;;;4788335;29;20340;-44
2022/08/29 10:34:58;;;;;;;;;;;;;;;;;;4788116;30;20033;-43
2022/08/29 10:37:31;;;;;;;;;;;;;;;;;;4787683;29;20001;-44
2022/08/29 10:40:22;;;;;;;;;;;;;;;;;;4787433;29;19958;-44
2022/08/29 10:42:51;;;;;;;;;;;;;;;;;;4785372;29;19957;-43
2022/08/29 10:45:21;;;;;;;;;;;;;;;;;;4787874;29;19991;-43
2022/08/29 10:47:55;;;;;;;;;;;;;;;;;;4787867;29;19932;-42
2022/08/29 10:50:34;;;;;;;;;;;;;;;;;;4787659;29;19926;-43
2022/08/29 10:53:37;;;;;;;;;;;;;;;;;;4787688;30;19929;-44
2022/08/29 10:56:04;;;;;;;;;;;;;;;;;;4801405;29;19925;-45
2022/08/29 10:58:48;;;;;;;;;;;;;;;;;;4788014;29;19930;-50
2022/08/29 11:01:21;;;;;;;;;;;;;;;;;;4787556;29;19932;-45
2022/08/29 11:04:03;;;;;;;;;;;;;;;;;;4787613;29;19929;-46
2022/08/29 11:06:33;;;;;;;;;;;;;;;;;;4787627;29;19929;-44
2022/08/29 11:09:13;;;;;;;;;;;;;;;;;;4787465;29;19935;-43
2022/08/29 11:11:45;;;;;;;;;;;;;;;;;;4787608;29;19925;-45
2022/08/29 11:14:25;;;;;;;;;;;;;;;;;;4787412;29;19932;-44
2022/08/29 11:16:53;;;;;;;;;;;;;;;;;;4787689;29;19932;-43
2022/08/29 11:19:27;;;;;;;;;;;;;;;;;;4787308;29;20431;-44
2022/08/29 11:22:13;;;;;;;;;;;;;;;;;;4787213;30;19930;-45
2022/08/29 11:24:41;;;;;;;;;;;;;;;;;;4787340;29;19930;-43
2022/08/29 11:27:18;;;;;;;;;;;;;;;;;;4787379;29;20353;-44
2022/08/29 11:30:05;;;;;;;;;;;;;;;;;;4787210;29;19932;-43
2022/08/29 11:32:41;;;;;;;;;;;;;;;;;;4787436;29;19925;-43
2022/08/29 11:35:13;;;;;;;;;;;;;;;;;;4787403;30;20443;-44
2022/08/29 11:37:50;;;;;;;;;;;;;;;;;;4787045;30;19932;-44
2022/08/29 11:40:26;;;;;;;;;;;;;;;;;;4787267;30;19926;-44
2022/08/29 11:43:15;;;;;;;;;;;;;;;;;;4787146;29;20024;-43
2022/08/29 11:45:42;;;;;;;;;;;;;;;;;;4784405;29;19926;-43
2022/08/29 11:48:16;;;;;;;;;;;;;;;;;;4769507;29;19925;-44
2022/08/29 11:50:43;;;;;;;;;;;;;;;;;;4768459;30;19932;-43
2022/08/29 11:53:20;;;;;;;;;;;;;;;;;;4768419;30;19937;-43
2022/08/29 11:56:18;;;;;;;;;;;;;;;;;;4768959;30;19925;-43
2022/08/29 11:58:46;;;;;;;;;;;;;;;;;;4765088;30;19929;-43
2022/08/29 12:01:23;;;;;;;;;;;;;;;;;;4768919;29;19925;-44
2022/08/29 12:03:54;;;;;;;;;;;;;;;;;;4768963;29;19933;-45
2022/08/29 12:06:24;;;;;;;;;;;;;;;;;;4768627;30;19926;-45
2022/08/29 12:09:04;;;;;;;;;;;;;;;;;;4767667;30;20006;-46
2022/08/29 12:11:52;;;;;;;;;;;;;;;;;;4768702;30;19925;-45
2022/08/29 12:14:29;;;;;;;;;;;;;;;;;;4769262;30;19980;-45
2022/08/29 12:17:28;;;;;;;;;;;;;;;;;;4769138;30;20259;-49
2022/08/29 12:20:18;;;;;;;;;;;;;;;;;;4779568;29;19929;-50
2022/08/29 12:22:51;;;;;;;;;;;;;;;;;;4786635;29;20390;-44
2022/08/29 12:25:31;;;;;;;;;;;;;;;;;;4786415;29;19974;-44
2022/08/29 12:28:05;;;;;;;;;;;;;;;;;;4786878;30;19933;-43
2022/08/29 12:30:40;;;;;;;;;;;;;;;;;;4786891;29;19925;-45
2022/08/29 12:33:11;;;;;;;;;;;;;;;;;;4786990;30;20004;-43
2022/08/29 12:35:58;;;;;;;;;;;;;;;;;;4786648;29;19933;-44
2022/08/29 12:38:30;;;;;;;;;;;;;;;;;;4786551;29;19929;-45
2022/08/29 12:41:07;;;;;;;;;;;;;;;;;;4786666;29;19925;-45
2022/08/29 12:43:42;;;;;;;;;;;;;;;;;;4786566;29;20289;-49
2022/08/29 12:46:18;;;;;;;;;;;;;;;;;;4786329;29;19979;-45
2022/08/29 12:48:49;;;;;;;;;;;;;;;;;;4786669;29;19926;-45
2022/08/29 12:51:31;;;;;;;;;;;;;;;;;;4786370;29;19925;-46
2022/08/29 12:53:59;;;;;;;;;;;;;;;;;;4786633;29;19976;-44
2022/08/29 12:56:26;;;;;;;;;;;;;;;;;;4786624;29;20377;-45
2022/08/29 12:58:55;;;;;;;;;;;;;;;;;;4786572;29;19925;-49
2022/08/29 13:01:30;;;;;;;;;;;;;;;;;;4787071;29;19967;-46
2022/08/29 13:04:03;;;;;;;;;;;;;;;;;;4789603;30;19933;-47
2022/08/29 13:06:31;;;;;;;;;;;;;;;;;;4789386;29;19932;-47
2022/08/29 13:09:01;;;;;;;;;;;;;;;;;;4788098;29;20525;-50
2022/08/29 13:11:29;;;;;;;;;;;;;;;;;;4788434;29;19929;-46
2022/08/29 13:14:04;;;;;;;;;;;;;;;;;;4789654;30;20450;-45
2022/08/29 13:16:32;;;;;;;;;;;;;;;;;;4789227;29;19925;-46
2022/08/29 13:18:59;;;;;;;;;;;;;;;;;;4789508;29;19978;-45
2022/08/29 13:21:36;;;;;;;;;;;;;;;;;;4789750;29;19929;-44
2022/08/29 13:24:18;;;;;;;;;;;;;;;;;;4789055;29;19929;-48
2022/08/29 13:27:05;;;;;;;;;;;;;;;;;;4789302;30;19993;-48
2022/08/29 13:29:35;;;;;;;;;;;;;;;;;;4775945;29;20354;-53
2022/08/29 13:32:11;;;;;;;;;;;;;;;;;;4771573;29;20374;-53
2022/08/29 13:34:59;;;;;;;;;;;;;;;;;;4771449;30;19930;-44
2022/08/29 13:37:29;;;;;;;;;;;;;;;;;;4770469;30;19926;-47
2022/08/29 13:40:17;;;;;;;;;;;;;;;;;;4771300;30;20013;-46
2022/08/29 13:42:44;;;;;;;;;;;;;;;;;;4770840;29;20347;-48
2022/08/29 13:45:12;;;;;;;;;;;;;;;;;;4771202;29;20373;-44
2022/08/29 13:47:51;;;;;;;;;;;;;;;;;;4771145;29;20029;-48
2022/08/29 13:50:18;;;;;;;;;;;;;;;;;;4771051;30;19926;-47
2022/08/29 13:52:49;;;;;;;;;;;;;;;;;;4770883;30;19965;-49
2022/08/29 13:55:16;;;;;;;;;;;;;;;;;;4771119;30;19937;-46
2022/08/29 13:57:45;;;;;;;;;;;;;;;;;;4784650;30;19933;-47
2022/08/29 14:00:13;;;;;;;;;;;;;;;;;;4770819;29;19925;-51
2022/08/29 14:02:40;;;;;;;;;;;;;;;;;;4771017;29;20301;-51
2022/08/29 14:05:12;;;;;;;;;;;;;;;;;;4770683;30;20008;-43
2022/08/29 14:07:41;;;;;;;;;;;;;;;;;;4770588;30;19955;-45
2022/08/29 14:10:09;;;;;;;;;;;;;;;;;;4771180;30;19930;-44
2022/08/29 14:12:37;;;;;;;;;;;;;;;;;;4769442;30;19941;-45
2022/08/29 14:15:06;;;;;;;;;;;;;;;;;;4769627;30;19938;-44
2022/08/29 14:17:37;;;;;;;;;;;;;;;;;;4770581;29;19948;-45
2022/08/29 14:20:08;;;;;;;;;;;;;;;;;;4780298;30;19925;-52
2022/08/29 14:22:35;;;;;;;;;;;;;;;;;;4788407;29;19931;-48
2022/08/29 14:25:04;;;;;;;;;;;;;;;;;;4788027;29;20020;-48
2022/08/29 14:27:31;;;;;;;;;;;;;;;;;;4788012;29;19972;-48
2022/08/29 14:29:59;;;;;;;;;;;;;;;;;;4788079;29;19990;-43
2022/08/29 14:32:27;;;;;;;;;;;;;;;;;;4788184;29;19929;-48
2022/08/29 14:34:57;;;;;;;;;;;;;;;;;;4788103;29;19932;-49
2022/08/29 14:37:26;;;;;;;;;;;;;;;;;;4787776;29;20394;-42
2022/08/29 14:39:53;;;;;;;;;;;;;;;;;;4787709;30;19982;-44
2022/08/29 14:42:20;;;;;;;;;;;;;;;;;;4787854;29;20290;-49
2022/08/29 14:44:47;;;;;;;;;;;;;;;;;;4787878;30;19929;-48
2022/08/29 14:47:15;;;;;;;;;;;;;;;;;;4787813;29;19926;-48
2022/08/29 14:49:42;;;;;;;;;;;;;;;;;;4787927;29;19959;-47
2022/08/29 14:52:13;;;;;;;;;;;;;;;;;;4787788;29;19952;-50
2022/08/29 14:54:41;;;;;;;;;;;;;;;;;;4787783;29;19930;-46
2022/08/29 14:57:09;;;;;;;;;;;;;;;;;;4788092;29;20275;-43
2022/08/29 14:59:37;;;;;;;;;;;;;;;;;;4787757;29;20020;-48
2022/08/29 15:02:04;;;;;;;;;;;;;;;;;;4787652;29;20016;-47
2022/08/29 15:04:33;;;;;;;;;;;;;;;;;;4787606;30;20378;-47
2022/08/29 15:07:02;;;;;;;;;;;;;;;;;;4787618;30;19929;-48
2022/08/29 15:09:30;;;;;;;;;;;;;;;;;;4787490;29;19940;-44
2022/08/29 15:11:57;;;;;;;;;;;;;;;;;;4787530;30;19925;-43
2022/08/29 15:14:24;;;;;;;;;;;;;;;;;;4787313;29;20352;-43
2022/08/29 15:16:51;;;;;;;;;;;;;;;;;;4787464;29;19929;-42
2022/08/29 15:19:20;;;;;;;;;;;;;;;;;;4787264;29;20407;-42
2022/08/29 15:22:08;;;;;;;;;;;;;;;;;;4787634;29;20374;-45
2022/08/29 15:24:35;;;;;;;;;;;;;;;;;;4787027;29;19932;-43
2022/08/29 15:27:04;;;;;;;;;;;;;;;;;;4787749;29;19999;-51
2022/08/29 15:29:33;;;;;;;;;;;;;;;;;;4768493;29;20215;-43
2022/08/29 15:32:00;;;;;;;;;;;;;;;;;;4769142;30;19926;-43
2022/08/29 15:34:28;;;;;;;;;;;;;;;;;;4769367;30;19987;-43
2022/08/29 15:36:57;;;;;;;;;;;;;;;;;;4769541;30;20525;-46
2022/08/29 15:39:26;;;;;;;;;;;;;;;;;;4769063;29;19932;-43
2022/08/29 15:41:54;;;;;;;;;;;;;;;;;;4768781;29;20004;-47
2022/08/29 15:44:22;;;;;;;;;;;;;;;;;;4769006;30;19925;-42
2022/08/29 15:46:49;;;;;;;;;;;;;;;;;;4768634;30;20017;-46
2022/08/29 15:49:18;;;;;;;;;;;;;;;;;;4769341;29;19925;-43
2022/08/29 15:51:46;;;;;;;;;;;;;;;;;;4769298;30;20005;-49
2022/08/29 15:54:14;;;;;;;;;;;;;;;;;;4769366;30;19926;-42
2022/08/29 15:56:44;;;;;;;;;;;;;;;;;;4769074;30;19925;-47
2022/08/29 15:59:13;;;;;;;;;;;;;;;;;;4769153;30;19925;-45
2022/08/29 16:01:42;;;;;;;;;;;;;;;;;;4769080;30;19949;-45
2022/08/29 16:04:10;;;;;;;;;;;;;;;;;;4769209;29;20171;-43
2022/08/29 16:06:37;;;;;;;;;;;;;;;;;;4768982;30;19933;-44
2022/08/29 16:09:06;;;;;;;;;;;;;;;;;;4768956;30;20000;-43
2022/08/29 16:11:41;;;;;;;;;;;;;;;;;;4768042;30;20398;-43
2022/08/29 16:14:08;;;;;;;;;;;;;;;;;;4768193;30;20020;-46
2022/08/29 16:16:55;;;;;;;;;;;;;;;;;;4768455;30;20009;-45
2022/08/29 16:19:25;;;;;;;;;;;;;;;;;;4773017;29;20445;-47
2022/08/29 16:21:58;;;;;;;;;;;;;;;;;;4786322;29;20539;-46
2022/08/29 16:24:27;;;;;;;;;;;;;;;;;;4785754;29;19974;-47
2022/08/29 16:26:54;;;;;;;;;;;;;;;;;;4786819;29;20416;-44
2022/08/29 16:29:21;;;;;;;;;;;;;;;;;;4786672;29;19936;-47
2022/08/29 16:31:52;;;;;;;;;;;;;;;;;;4786637;29;20400;-45
2022/08/29 16:34:19;;;;;;;;;;;;;;;;;;4786550;29;19935;-47
2022/08/29 16:36:47;;;;;;;;;;;;;;;;;;4787148;29;19948;-49
2022/08/29 16:39:14;;;;;;;;;;;;;;;;;;4789962;29;19974;-49
2022/08/29 16:41:44;;;;;;;;;;;;;;;;;;4789971;29;19929;-43
2022/08/29 16:44:11;;;;;;;;;;;;;;;;;;4790297;30;19931;-52
2022/08/29 16:46:38;;;;;;;;;;;;;;;;;;4789995;29;19926;-48
2022/08/29 16:49:05;;;;;;;;;;;;;;;;;;4790011;29;19968;-46
2022/08/29 16:51:32;;;;;;;;;;;;;;;;;;4803321;29;20394;-46
2022/08/29 16:54:05;;;;;;;;;;;;;;;;;;4772952;29;19925;-47
2022/08/29 16:56:33;;;;;;;;;;;;;;;;;;4772061;29;20267;-44
2022/08/29 16:59:01;;;;;;;;;;;;;;;;;;4771822;30;19933;-44
2022/08/29 17:01:30;;;;;;;;;;;;;;;;;;4771836;29;20310;-45
2022/08/29 17:04:00;;;;;;;;;;;;;;;;;;4771629;30;19949;-45
2022/08/29 17:06:31;;;;;;;;;;;;;;;;;;4771771;30;19936;-46
2022/08/29 17:18:51;;;;;;;;;;;;;;;;;;4772053;30;19968;-47